sensor_id;sensor_type;location;lat;lon;timestamp;P1;durP1;ratioP1;P2;durP2;ratioP2
35675;SDS011;21790;42.668;23.298;2023-11-22T00:00:08;47.88;;;23.77;;
35675;SDS011;21790;42.668;23.298;2023-11-22T00:02:35;44.63;;;24.33;;
35675;SDS011;21790;42.668;23.298;2023-11-22T00:05:01;44.55;;;23.65;;
35675;SDS011;21790;42.668;23.298;2023-11-22T00:07:28;44.05;;;22.92;;
35675;SDS011;21790;42.668;23.298;2023-11-22T00:09:54;38.58;;;21.75;;
35675;SDS011;21790;42.668;23.298;2023-11-22T00:12:21;39.70;;;21.52;;
35675;SDS011;21790;42.668;23.298;2023-11-22T00:14:48;45.95;;;21.27;;
35675;SDS011;21790;42.668;23.298;2023-11-22T00:17:14;48.40;;;22.05;;
35675;SDS011;21790;42.668;23.298;2023-11-22T00:19:42;41.90;;;20.85;;
35675;SDS011;21790;42.668;23.298;2023-11-22T00:22:09;42.17;;;22.20;;
35675;SDS011;21790;42.668;23.298;2023-11-22T00:24:38;39.65;;;22.27;;
35675;SDS011;21790;42.668;23.298;2023-11-22T00:27:05;40.38;;;22.00;;
35675;SDS011;21790;42.668;23.298;2023-11-22T00:29:31;47.13;;;21.52;;
35675;SDS011;21790;42.668;23.298;2023-11-22T00:31:57;43.35;;;21.55;;
35675;SDS011;21790;42.668;23.298;2023-11-22T00:34:23;41.90;;;21.63;;
35675;SDS011;21790;42.668;23.298;2023-11-22T00:36:49;41.83;;;22.38;;
35675;SDS011;21790;42.668;23.298;2023-11-22T00:41:44;43.17;;;22.48;;
35675;SDS011;21790;42.668;23.298;2023-11-22T00:44:11;44.42;;;20.90;;
35675;SDS011;21790;42.668;23.298;2023-11-22T00:46:38;43.30;;;22.65;;
35675;SDS011;21790;42.668;23.298;2023-11-22T00:49:04;46.85;;;21.67;;
35675;SDS011;21790;42.668;23.298;2023-11-22T00:51:30;41.60;;;23.17;;
35675;SDS011;21790;42.668;23.298;2023-11-22T00:54:00;44.55;;;21.25;;
35675;SDS011;21790;42.668;23.298;2023-11-22T00:56:26;39.78;;;20.88;;
35675;SDS011;21790;42.668;23.298;2023-11-22T00:58:52;42.15;;;22.42;;
35675;SDS011;21790;42.668;23.298;2023-11-22T01:01:18;39.13;;;20.23;;
35675;SDS011;21790;42.668;23.298;2023-11-22T01:03:47;44.53;;;21.02;;
35675;SDS011;21790;42.668;23.298;2023-11-22T01:06:13;43.25;;;20.50;;
35675;SDS011;21790;42.668;23.298;2023-11-22T01:08:39;43.10;;;21.02;;
35675;SDS011;21790;42.668;23.298;2023-11-22T01:11:05;42.00;;;20.15;;
35675;SDS011;21790;42.668;23.298;2023-11-22T01:13:31;35.50;;;19.80;;
35675;SDS011;21790;42.668;23.298;2023-11-22T01:16:08;34.58;;;18.90;;
35675;SDS011;21790;42.668;23.298;2023-11-22T01:18:33;37.95;;;19.88;;
35675;SDS011;21790;42.668;23.298;2023-11-22T01:21:00;33.50;;;19.50;;
35675;SDS011;21790;42.668;23.298;2023-11-22T01:23:25;40.70;;;20.00;;
35675;SDS011;21790;42.668;23.298;2023-11-22T01:28:18;41.35;;;19.80;;
35675;SDS011;21790;42.668;23.298;2023-11-22T01:30:44;35.03;;;19.67;;
35675;SDS011;21790;42.668;23.298;2023-11-22T01:33:14;33.30;;;19.85;;
35675;SDS011;21790;42.668;23.298;2023-11-22T01:35:40;34.20;;;17.30;;
35675;SDS011;21790;42.668;23.298;2023-11-22T01:40:32;33.30;;;18.35;;
35675;SDS011;21790;42.668;23.298;2023-11-22T01:42:59;35.05;;;18.38;;
35675;SDS011;21790;42.668;23.298;2023-11-22T01:45:30;39.10;;;18.60;;
35675;SDS011;21790;42.668;23.298;2023-11-22T01:55:12;38.88;;;19.45;;
35675;SDS011;21790;42.668;23.298;2023-11-22T02:02:39;37.47;;;19.17;;
35675;SDS011;21790;42.668;23.298;2023-11-22T02:05:05;34.65;;;17.85;;
35675;SDS011;21790;42.668;23.298;2023-11-22T02:07:30;32.60;;;17.60;;
35675;SDS011;21790;42.668;23.298;2023-11-22T02:17:14;31.48;;;17.60;;
35675;SDS011;21790;42.668;23.298;2023-11-22T02:19:42;31.75;;;17.83;;
35675;SDS011;21790;42.668;23.298;2023-11-22T02:22:08;31.92;;;16.58;;
35675;SDS011;21790;42.668;23.298;2023-11-22T02:24:33;33.38;;;17.23;;
35675;SDS011;21790;42.668;23.298;2023-11-22T02:26:59;29.42;;;16.70;;
35675;SDS011;21790;42.668;23.298;2023-11-22T02:29:25;30.20;;;15.30;;
35675;SDS011;21790;42.668;23.298;2023-11-22T02:51:23;34.50;;;16.50;;
35675;SDS011;21790;42.668;23.298;2023-11-22T03:08:25;36.85;;;18.05;;
35675;SDS011;21790;42.668;23.298;2023-11-22T04:01:53;31.60;;;17.80;;
35675;SDS011;21790;42.668;23.298;2023-11-22T04:11:38;24.52;;;15.15;;
35675;SDS011;21790;42.668;23.298;2023-11-22T04:14:04;27.33;;;14.93;;
35675;SDS011;21790;42.668;23.298;2023-11-22T04:16:30;30.95;;;16.02;;
35675;SDS011;21790;42.668;23.298;2023-11-22T04:18:56;33.53;;;17.00;;
35675;SDS011;21790;42.668;23.298;2023-11-22T04:21:22;29.45;;;16.60;;
35675;SDS011;21790;42.668;23.298;2023-11-22T04:23:47;31.70;;;16.30;;
35675;SDS011;21790;42.668;23.298;2023-11-22T04:26:16;32.97;;;16.20;;
35675;SDS011;21790;42.668;23.298;2023-11-22T04:28:46;25.50;;;16.58;;
35675;SDS011;21790;42.668;23.298;2023-11-22T04:31:11;32.10;;;16.45;;
35675;SDS011;21790;42.668;23.298;2023-11-22T04:33:37;31.75;;;17.35;;
35675;SDS011;21790;42.668;23.298;2023-11-22T04:36:03;30.92;;;16.02;;
35675;SDS011;21790;42.668;23.298;2023-11-22T04:38:29;29.00;;;16.35;;
35675;SDS011;21790;42.668;23.298;2023-11-22T04:40:55;33.22;;;16.42;;
35675;SDS011;21790;42.668;23.298;2023-11-22T04:43:20;28.40;;;16.73;;
35675;SDS011;21790;42.668;23.298;2023-11-22T04:45:46;40.83;;;16.92;;
35675;SDS011;21790;42.668;23.298;2023-11-22T04:48:14;33.03;;;15.95;;
35675;SDS011;21790;42.668;23.298;2023-11-22T04:50:40;28.40;;;16.90;;
35675;SDS011;21790;42.668;23.298;2023-11-22T05:02:49;34.60;;;17.25;;
35675;SDS011;21790;42.668;23.298;2023-11-22T05:05:15;36.13;;;17.55;;
35675;SDS011;21790;42.668;23.298;2023-11-22T05:15:01;33.72;;;16.40;;
35675;SDS011;21790;42.668;23.298;2023-11-22T05:17:27;29.85;;;17.20;;
35675;SDS011;21790;42.668;23.298;2023-11-22T05:29:35;29.10;;;16.48;;
35675;SDS011;21790;42.668;23.298;2023-11-22T05:34:28;26.85;;;15.98;;
35675;SDS011;21790;42.668;23.298;2023-11-22T05:36:54;32.83;;;16.83;;
35675;SDS011;21790;42.668;23.298;2023-11-22T05:39:20;28.67;;;16.02;;
35675;SDS011;21790;42.668;23.298;2023-11-22T05:41:47;34.95;;;16.83;;
35675;SDS011;21790;42.668;23.298;2023-11-22T05:44:13;34.15;;;17.73;;
35675;SDS011;21790;42.668;23.298;2023-11-22T05:46:39;27.48;;;17.10;;
35675;SDS011;21790;42.668;23.298;2023-11-22T05:49:05;33.47;;;17.30;;
35675;SDS011;21790;42.668;23.298;2023-11-22T05:51:32;29.85;;;17.13;;
35675;SDS011;21790;42.668;23.298;2023-11-22T05:53:59;26.10;;;15.10;;
35675;SDS011;21790;42.668;23.298;2023-11-22T05:56:24;30.20;;;15.85;;
35675;SDS011;21790;42.668;23.298;2023-11-22T05:58:51;29.75;;;14.20;;
35675;SDS011;21790;42.668;23.298;2023-11-22T06:01:16;27.63;;;14.30;;
35675;SDS011;21790;42.668;23.298;2023-11-22T06:03:42;28.67;;;15.13;;
35675;SDS011;21790;42.668;23.298;2023-11-22T06:06:07;35.17;;;16.58;;
35675;SDS011;21790;42.668;23.298;2023-11-22T06:08:33;27.95;;;16.23;;
35675;SDS011;21790;42.668;23.298;2023-11-22T06:10:59;31.13;;;17.25;;
35675;SDS011;21790;42.668;23.298;2023-11-22T06:13:28;32.53;;;17.67;;
35675;SDS011;21790;42.668;23.298;2023-11-22T06:15:54;33.20;;;17.67;;
35675;SDS011;21790;42.668;23.298;2023-11-22T06:18:19;31.85;;;18.35;;
35675;SDS011;21790;42.668;23.298;2023-11-22T06:20:46;34.58;;;17.75;;
35675;SDS011;21790;42.668;23.298;2023-11-22T06:23:15;29.17;;;17.33;;
35675;SDS011;21790;42.668;23.298;2023-11-22T06:25:41;34.95;;;17.50;;
35675;SDS011;21790;42.668;23.298;2023-11-22T06:28:09;28.75;;;16.92;;
35675;SDS011;21790;42.668;23.298;2023-11-22T06:30:34;30.17;;;17.58;;
35675;SDS011;21790;42.668;23.298;2023-11-22T06:33:01;33.92;;;17.77;;
35675;SDS011;21790;42.668;23.298;2023-11-22T06:35:27;32.72;;;19.30;;
35675;SDS011;21790;42.668;23.298;2023-11-22T06:37:53;38.30;;;18.13;;
35675;SDS011;21790;42.668;23.298;2023-11-22T06:40:20;35.40;;;20.88;;
35675;SDS011;21790;42.668;23.298;2023-11-22T06:42:46;32.42;;;18.77;;
35675;SDS011;21790;42.668;23.298;2023-11-22T06:45:12;33.65;;;18.80;;
35675;SDS011;21790;42.668;23.298;2023-11-22T06:47:41;29.90;;;18.25;;
35675;SDS011;21790;42.668;23.298;2023-11-22T06:50:10;38.03;;;19.48;;
35675;SDS011;21790;42.668;23.298;2023-11-22T06:52:37;30.48;;;18.55;;
35675;SDS011;21790;42.668;23.298;2023-11-22T06:55:05;31.85;;;18.60;;
35675;SDS011;21790;42.668;23.298;2023-11-22T06:57:33;30.70;;;18.60;;
35675;SDS011;21790;42.668;23.298;2023-11-22T07:00:02;31.90;;;18.10;;
35675;SDS011;21790;42.668;23.298;2023-11-22T07:02:37;35.85;;;18.23;;
35675;SDS011;21790;42.668;23.298;2023-11-22T07:05:03;38.72;;;19.95;;
35675;SDS011;21790;42.668;23.298;2023-11-22T07:07:33;31.88;;;18.25;;
35675;SDS011;21790;42.668;23.298;2023-11-22T07:09:59;34.67;;;18.35;;
35675;SDS011;21790;42.668;23.298;2023-11-22T07:12:26;31.88;;;17.35;;
35675;SDS011;21790;42.668;23.298;2023-11-22T07:14:52;36.03;;;18.50;;
35675;SDS011;21790;42.668;23.298;2023-11-22T07:17:19;39.60;;;19.10;;
35675;SDS011;21790;42.668;23.298;2023-11-22T07:19:47;31.35;;;18.80;;
35675;SDS011;21790;42.668;23.298;2023-11-22T07:22:16;33.80;;;18.67;;
35675;SDS011;21790;42.668;23.298;2023-11-22T07:24:44;36.67;;;19.30;;
35675;SDS011;21790;42.668;23.298;2023-11-22T07:27:33;33.08;;;16.95;;
35675;SDS011;21790;42.668;23.298;2023-11-22T07:29:59;38.33;;;20.20;;
35675;SDS011;21790;42.668;23.298;2023-11-22T07:32:27;34.72;;;19.42;;
35675;SDS011;21790;42.668;23.298;2023-11-22T07:34:54;29.48;;;18.65;;
35675;SDS011;21790;42.668;23.298;2023-11-22T07:37:28;36.35;;;20.67;;
35675;SDS011;21790;42.668;23.298;2023-11-22T07:39:56;33.58;;;18.35;;
35675;SDS011;21790;42.668;23.298;2023-11-22T07:42:24;37.72;;;18.23;;
35675;SDS011;21790;42.668;23.298;2023-11-22T07:44:50;28.75;;;17.48;;
35675;SDS011;21790;42.668;23.298;2023-11-22T07:47:21;34.28;;;18.23;;
35675;SDS011;21790;42.668;23.298;2023-11-22T07:49:50;23.20;;;15.30;;
35675;SDS011;21790;42.668;23.298;2023-11-22T07:52:21;25.25;;;15.15;;
35675;SDS011;21790;42.668;23.298;2023-11-22T07:54:47;23.42;;;14.38;;
35675;SDS011;21790;42.668;23.298;2023-11-22T07:57:13;26.52;;;15.05;;
35675;SDS011;21790;42.668;23.298;2023-11-22T07:59:40;27.75;;;14.88;;
35675;SDS011;21790;42.668;23.298;2023-11-22T08:02:06;26.25;;;15.05;;
35675;SDS011;21790;42.668;23.298;2023-11-22T08:04:36;27.73;;;15.65;;
35675;SDS011;21790;42.668;23.298;2023-11-22T08:07:01;54.38;;;28.52;;
35675;SDS011;21790;42.668;23.298;2023-11-22T08:09:27;32.03;;;18.73;;
35675;SDS011;21790;42.668;23.298;2023-11-22T08:11:58;25.33;;;13.75;;
35675;SDS011;21790;42.668;23.298;2023-11-22T08:14:25;24.30;;;13.25;;
35675;SDS011;21790;42.668;23.298;2023-11-22T08:16:53;24.90;;;13.65;;
35675;SDS011;21790;42.668;23.298;2023-11-22T08:19:19;23.95;;;15.02;;
35675;SDS011;21790;42.668;23.298;2023-11-22T08:21:44;30.02;;;16.17;;
35675;SDS011;21790;42.668;23.298;2023-11-22T08:24:10;29.40;;;16.27;;
35675;SDS011;21790;42.668;23.298;2023-11-22T08:26:38;32.00;;;17.10;;
35675;SDS011;21790;42.668;23.298;2023-11-22T08:29:04;26.98;;;14.95;;
35675;SDS011;21790;42.668;23.298;2023-11-22T08:31:33;26.83;;;14.98;;
35675;SDS011;21790;42.668;23.298;2023-11-22T08:34:01;26.27;;;15.50;;
35675;SDS011;21790;42.668;23.298;2023-11-22T08:36:29;25.15;;;14.70;;
35675;SDS011;21790;42.668;23.298;2023-11-22T08:38:59;24.40;;;14.65;;
35675;SDS011;21790;42.668;23.298;2023-11-22T08:41:26;32.90;;;17.55;;
35675;SDS011;21790;42.668;23.298;2023-11-22T08:43:54;26.70;;;16.02;;
35675;SDS011;21790;42.668;23.298;2023-11-22T08:46:20;26.30;;;15.07;;
35675;SDS011;21790;42.668;23.298;2023-11-22T08:48:46;25.80;;;16.00;;
35675;SDS011;21790;42.668;23.298;2023-11-22T08:51:12;26.70;;;15.98;;
35675;SDS011;21790;42.668;23.298;2023-11-22T08:53:38;30.03;;;17.90;;
35675;SDS011;21790;42.668;23.298;2023-11-22T08:56:04;35.20;;;17.40;;
35675;SDS011;21790;42.668;23.298;2023-11-22T08:58:30;30.13;;;18.60;;
35675;SDS011;21790;42.668;23.298;2023-11-22T09:00:56;32.47;;;17.58;;
35675;SDS011;21790;42.668;23.298;2023-11-22T09:03:23;28.17;;;17.40;;
35675;SDS011;21790;42.668;23.298;2023-11-22T09:05:51;35.42;;;18.17;;
35675;SDS011;21790;42.668;23.298;2023-11-22T09:08:19;30.02;;;18.20;;
35675;SDS011;21790;42.668;23.298;2023-11-22T09:10:46;27.42;;;17.60;;
35675;SDS011;21790;42.668;23.298;2023-11-22T09:13:11;32.83;;;17.85;;
35675;SDS011;21790;42.668;23.298;2023-11-22T09:15:41;27.63;;;16.60;;
35675;SDS011;21790;42.668;23.298;2023-11-22T09:18:13;27.15;;;17.42;;
35675;SDS011;21790;42.668;23.298;2023-11-22T09:20:39;33.03;;;19.52;;
35675;SDS011;21790;42.668;23.298;2023-11-22T09:23:09;28.75;;;18.10;;
35675;SDS011;21790;42.668;23.298;2023-11-22T09:25:35;35.15;;;21.58;;
35675;SDS011;21790;42.668;23.298;2023-11-22T09:28:02;31.20;;;19.80;;
35675;SDS011;21790;42.668;23.298;2023-11-22T09:30:29;43.63;;;24.75;;
35675;SDS011;21790;42.668;23.298;2023-11-22T09:33:03;49.03;;;28.67;;
35675;SDS011;21790;42.668;23.298;2023-11-22T09:35:29;52.75;;;30.40;;
35675;SDS011;21790;42.668;23.298;2023-11-22T09:38:00;56.83;;;31.88;;
35675;SDS011;21790;42.668;23.298;2023-11-22T09:40:27;53.55;;;31.33;;
35675;SDS011;21790;42.668;23.298;2023-11-22T09:43:01;52.53;;;30.65;;
35675;SDS011;21790;42.668;23.298;2023-11-22T09:45:28;59.42;;;31.52;;
35675;SDS011;21790;42.668;23.298;2023-11-22T09:47:57;56.13;;;31.77;;
35675;SDS011;21790;42.668;23.298;2023-11-22T09:54:03;44.20;;;27.77;;
35675;SDS011;21790;42.668;23.298;2023-11-22T09:56:17;55.78;;;26.73;;
35675;SDS011;21790;42.668;23.298;2023-11-22T09:58:44;41.83;;;24.02;;
35675;SDS011;21790;42.668;23.298;2023-11-22T10:01:14;43.38;;;23.27;;
35675;SDS011;21790;42.668;23.298;2023-11-22T10:03:42;43.63;;;24.08;;
35675;SDS011;21790;42.668;23.298;2023-11-22T10:06:07;34.38;;;20.73;;
35675;SDS011;21790;42.668;23.298;2023-11-22T10:08:33;33.75;;;20.77;;
35675;SDS011;21790;42.668;23.298;2023-11-22T10:11:00;34.80;;;21.45;;
35675;SDS011;21790;42.668;23.298;2023-11-22T10:13:26;35.80;;;20.15;;
35675;SDS011;21790;42.668;23.298;2023-11-22T10:15:53;30.92;;;19.83;;
35675;SDS011;21790;42.668;23.298;2023-11-22T10:18:21;38.88;;;21.92;;
35675;SDS011;21790;42.668;23.298;2023-11-22T10:20:53;33.50;;;21.23;;
35675;SDS011;21790;42.668;23.298;2023-11-22T10:23:19;42.78;;;22.00;;
35675;SDS011;21790;42.668;23.298;2023-11-22T10:25:50;36.63;;;22.23;;
35675;SDS011;21790;42.668;23.298;2023-11-22T10:28:18;39.72;;;23.67;;
35675;SDS011;21790;42.668;23.298;2023-11-22T10:30:48;38.63;;;21.52;;
35675;SDS011;21790;42.668;23.298;2023-11-22T10:33:16;37.47;;;22.55;;
35675;SDS011;21790;42.668;23.298;2023-11-22T10:35:47;41.00;;;24.50;;
35675;SDS011;21790;42.668;23.298;2023-11-22T10:38:16;46.08;;;25.58;;
35675;SDS011;21790;42.668;23.298;2023-11-22T10:40:43;38.40;;;24.35;;
35675;SDS011;21790;42.668;23.298;2023-11-22T10:43:13;40.60;;;24.92;;
35675;SDS011;21790;42.668;23.298;2023-11-22T10:45:42;44.25;;;25.55;;
35675;SDS011;21790;42.668;23.298;2023-11-22T10:48:20;40.90;;;23.88;;
35675;SDS011;21790;42.668;23.298;2023-11-22T10:50:46;48.67;;;27.15;;
35675;SDS011;21790;42.668;23.298;2023-11-22T10:53:15;45.42;;;24.52;;
35675;SDS011;21790;42.668;23.298;2023-11-22T10:55:46;48.90;;;27.02;;
35675;SDS011;21790;42.668;23.298;2023-11-22T10:58:14;42.03;;;25.70;;
35675;SDS011;21790;42.668;23.298;2023-11-22T11:00:41;43.35;;;25.88;;
35675;SDS011;21790;42.668;23.298;2023-11-22T11:03:14;46.30;;;27.27;;
35675;SDS011;21790;42.668;23.298;2023-11-22T11:05:54;42.88;;;25.20;;
35675;SDS011;21790;42.668;23.298;2023-11-22T11:10:53;48.22;;;26.30;;
35675;SDS011;21790;42.668;23.298;2023-11-22T11:13:23;57.72;;;27.02;;
35675;SDS011;21790;42.668;23.298;2023-11-22T11:15:52;46.10;;;27.60;;
35675;SDS011;21790;42.668;23.298;2023-11-22T11:18:19;45.50;;;26.77;;
35675;SDS011;21790;42.668;23.298;2023-11-22T11:20:53;54.47;;;28.77;;
35675;SDS011;21790;42.668;23.298;2023-11-22T11:23:26;45.22;;;27.20;;
35675;SDS011;21790;42.668;23.298;2023-11-22T11:25:54;47.20;;;28.05;;
35675;SDS011;21790;42.668;23.298;2023-11-22T11:28:20;44.42;;;27.33;;
35675;SDS011;21790;42.668;23.298;2023-11-22T11:30:50;49.08;;;28.45;;
35675;SDS011;21790;42.668;23.298;2023-11-22T11:33:17;51.05;;;28.15;;
35675;SDS011;21790;42.668;23.298;2023-11-22T11:35:56;48.53;;;27.48;;
35675;SDS011;21790;42.668;23.298;2023-11-22T11:38:26;45.65;;;28.15;;
35675;SDS011;21790;42.668;23.298;2023-11-22T11:40:58;42.72;;;25.42;;
35675;SDS011;21790;42.668;23.298;2023-11-22T11:43:47;45.58;;;25.85;;
35675;SDS011;21790;42.668;23.298;2023-11-22T11:46:15;42.60;;;24.63;;
35675;SDS011;21790;42.668;23.298;2023-11-22T11:51:16;42.72;;;25.13;;
35675;SDS011;21790;42.668;23.298;2023-11-22T11:53:44;40.22;;;25.00;;
35675;SDS011;21790;42.668;23.298;2023-11-22T11:56:10;41.85;;;24.50;;
35675;SDS011;21790;42.668;23.298;2023-11-22T11:58:37;42.90;;;24.60;;
35675;SDS011;21790;42.668;23.298;2023-11-22T13:17:25;43.53;;;24.80;;
35675;SDS011;21790;42.668;23.298;2023-11-22T13:22:16;38.35;;;23.75;;
35675;SDS011;21790;42.668;23.298;2023-11-22T13:24:44;39.25;;;24.95;;
35675;SDS011;21790;42.668;23.298;2023-11-22T13:27:09;42.55;;;25.50;;
35675;SDS011;21790;42.668;23.298;2023-11-22T13:29:35;45.90;;;25.55;;
35675;SDS011;21790;42.668;23.298;2023-11-22T13:32:01;39.90;;;25.50;;
35675;SDS011;21790;42.668;23.298;2023-11-22T13:34:27;42.40;;;25.25;;
35675;SDS011;21790;42.668;23.298;2023-11-22T13:36:54;43.22;;;25.23;;
35675;SDS011;21790;42.668;23.298;2023-11-22T13:39:20;40.80;;;24.48;;
35675;SDS011;21790;42.668;23.298;2023-11-22T13:41:46;39.70;;;24.77;;
35675;SDS011;21790;42.668;23.298;2023-11-22T13:44:15;39.88;;;25.05;;
35675;SDS011;21790;42.668;23.298;2023-11-22T13:46:44;46.20;;;25.23;;
35675;SDS011;21790;42.668;23.298;2023-11-22T13:49:11;47.83;;;24.00;;
35675;SDS011;21790;42.668;23.298;2023-11-22T13:51:37;38.22;;;24.13;;
35675;SDS011;21790;42.668;23.298;2023-11-22T13:54:05;40.75;;;22.55;;
35675;SDS011;21790;42.668;23.298;2023-11-22T13:56:30;38.85;;;23.65;;
35675;SDS011;21790;42.668;23.298;2023-11-22T13:58:56;38.92;;;22.23;;
35675;SDS011;21790;42.668;23.298;2023-11-22T14:01:22;42.97;;;23.45;;
35675;SDS011;21790;42.668;23.298;2023-11-22T14:03:48;37.30;;;21.08;;
35675;SDS011;21790;42.668;23.298;2023-11-22T14:06:13;41.20;;;21.48;;
35675;SDS011;21790;42.668;23.298;2023-11-22T14:08:41;33.92;;;21.30;;
35675;SDS011;21790;42.668;23.298;2023-11-22T14:11:07;34.67;;;18.55;;
35675;SDS011;21790;42.668;23.298;2023-11-22T14:13:33;32.15;;;17.00;;
35675;SDS011;21790;42.668;23.298;2023-11-22T14:15:58;29.50;;;16.65;;
35675;SDS011;21790;42.668;23.298;2023-11-22T14:18:26;29.15;;;15.63;;
35675;SDS011;21790;42.668;23.298;2023-11-22T14:20:51;25.85;;;14.68;;
35675;SDS011;21790;42.668;23.298;2023-11-22T14:23:18;21.77;;;13.48;;
35675;SDS011;21790;42.668;23.298;2023-11-22T14:25:43;21.30;;;13.15;;
35675;SDS011;21790;42.668;23.298;2023-11-22T14:28:10;21.83;;;12.15;;
35675;SDS011;21790;42.668;23.298;2023-11-22T14:30:36;22.45;;;12.65;;
35675;SDS011;21790;42.668;23.298;2023-11-22T14:33:02;18.00;;;11.57;;
35675;SDS011;21790;42.668;23.298;2023-11-22T14:35:32;25.52;;;13.07;;
35675;SDS011;21790;42.668;23.298;2023-11-22T14:38:00;18.25;;;11.32;;
35675;SDS011;21790;42.668;23.298;2023-11-22T14:40:27;23.52;;;11.93;;
35675;SDS011;21790;42.668;23.298;2023-11-22T14:42:55;22.35;;;10.90;;
35675;SDS011;21790;42.668;23.298;2023-11-22T14:45:21;25.35;;;12.98;;
35675;SDS011;21790;42.668;23.298;2023-11-22T14:47:47;22.65;;;11.85;;
35675;SDS011;21790;42.668;23.298;2023-11-22T14:50:16;20.13;;;11.75;;
35675;SDS011;21790;42.668;23.298;2023-11-22T14:52:42;20.00;;;11.40;;
35675;SDS011;21790;42.668;23.298;2023-11-22T14:55:10;24.45;;;12.13;;
35675;SDS011;21790;42.668;23.298;2023-11-22T14:57:37;19.80;;;12.07;;
35675;SDS011;21790;42.668;23.298;2023-11-22T15:00:03;20.48;;;11.43;;
35675;SDS011;21790;42.668;23.298;2023-11-22T15:02:34;19.00;;;11.73;;
35675;SDS011;21790;42.668;23.298;2023-11-22T15:05:01;21.88;;;11.85;;
35675;SDS011;21790;42.668;23.298;2023-11-22T15:07:29;20.88;;;11.25;;
35675;SDS011;21790;42.668;23.298;2023-11-22T15:09:55;18.92;;;11.30;;
35675;SDS011;21790;42.668;23.298;2023-11-22T15:12:20;24.80;;;12.40;;
35675;SDS011;21790;42.668;23.298;2023-11-22T15:14:46;24.13;;;12.90;;
35675;SDS011;21790;42.668;23.298;2023-11-22T15:17:12;24.27;;;13.05;;
35675;SDS011;21790;42.668;23.298;2023-11-22T15:19:38;20.95;;;13.05;;
35675;SDS011;21790;42.668;23.298;2023-11-22T15:22:06;25.00;;;13.75;;
35675;SDS011;21790;42.668;23.298;2023-11-22T15:24:34;24.27;;;14.02;;
35675;SDS011;21790;42.668;23.298;2023-11-22T15:26:59;24.20;;;14.90;;
35675;SDS011;21790;42.668;23.298;2023-11-22T15:29:25;25.60;;;13.23;;
35675;SDS011;21790;42.668;23.298;2023-11-22T15:31:50;23.50;;;13.88;;
35675;SDS011;21790;42.668;23.298;2023-11-22T15:34:19;26.08;;;14.27;;
35675;SDS011;21790;42.668;23.298;2023-11-22T15:36:44;24.25;;;14.68;;
35675;SDS011;21790;42.668;23.298;2023-11-22T15:39:11;26.60;;;15.02;;
35675;SDS011;21790;42.668;23.298;2023-11-22T15:41:40;21.05;;;13.50;;
35675;SDS011;21790;42.668;23.298;2023-11-22T15:44:06;18.13;;;12.48;;
35675;SDS011;21790;42.668;23.298;2023-11-22T15:46:32;25.00;;;13.35;;
35675;SDS011;21790;42.668;23.298;2023-11-22T15:48:57;27.58;;;14.18;;
35675;SDS011;21790;42.668;23.298;2023-11-22T15:51:23;26.55;;;13.70;;
35675;SDS011;21790;42.668;23.298;2023-11-22T15:53:48;23.95;;;14.07;;
35675;SDS011;21790;42.668;23.298;2023-11-22T15:56:14;34.38;;;14.57;;
35675;SDS011;21790;42.668;23.298;2023-11-22T15:58:43;20.63;;;12.68;;
35675;SDS011;21790;42.668;23.298;2023-11-22T16:01:10;27.25;;;13.63;;
35675;SDS011;21790;42.668;23.298;2023-11-22T16:03:36;25.75;;;14.00;;
35675;SDS011;21790;42.668;23.298;2023-11-22T16:06:04;22.35;;;13.98;;
35675;SDS011;21790;42.668;23.298;2023-11-22T16:08:30;24.58;;;13.77;;
35675;SDS011;21790;42.668;23.298;2023-11-22T16:10:56;28.05;;;14.60;;
35675;SDS011;21790;42.668;23.298;2023-11-22T16:13:22;28.65;;;16.02;;
35675;SDS011;21790;42.668;23.298;2023-11-22T16:15:48;36.95;;;17.10;;
35675;SDS011;21790;42.668;23.298;2023-11-22T16:18:16;31.33;;;17.92;;
35675;SDS011;21790;42.668;23.298;2023-11-22T16:20:43;35.60;;;18.52;;
35675;SDS011;21790;42.668;23.298;2023-11-22T16:23:09;30.83;;;18.25;;
35675;SDS011;21790;42.668;23.298;2023-11-22T16:25:36;34.03;;;18.77;;
35675;SDS011;21790;42.668;23.298;2023-11-22T16:28:04;32.63;;;18.60;;
35675;SDS011;21790;42.668;23.298;2023-11-22T16:30:29;31.48;;;19.20;;
35675;SDS011;21790;42.668;23.298;2023-11-22T16:32:55;32.60;;;19.30;;
35675;SDS011;21790;42.668;23.298;2023-11-22T16:35:21;33.70;;;18.00;;
35675;SDS011;21790;42.668;23.298;2023-11-22T16:45:06;31.10;;;16.40;;
35675;SDS011;21790;42.668;23.298;2023-11-22T16:47:34;31.95;;;16.90;;
35675;SDS011;21790;42.668;23.298;2023-11-22T16:49:59;31.13;;;16.97;;
35675;SDS011;21790;42.668;23.298;2023-11-22T16:52:28;32.03;;;17.17;;
35675;SDS011;21790;42.668;23.298;2023-11-22T16:54:54;32.85;;;16.00;;
35675;SDS011;21790;42.668;23.298;2023-11-22T16:57:19;33.38;;;16.58;;
35675;SDS011;21790;42.668;23.298;2023-11-22T17:02:12;30.53;;;16.43;;
35675;SDS011;21790;42.668;23.298;2023-11-22T17:11:55;19.00;;;10.90;;
35675;SDS011;21790;42.668;23.298;2023-11-22T17:14:22;17.63;;;10.43;;
35675;SDS011;21790;42.668;23.298;2023-11-22T17:16:48;15.32;;;9.25;;
35675;SDS011;21790;42.668;23.298;2023-11-22T17:19:13;16.17;;;9.55;;
35675;SDS011;21790;42.668;23.298;2023-11-22T17:21:39;16.70;;;10.18;;
35675;SDS011;21790;42.668;23.298;2023-11-22T17:24:06;17.02;;;9.27;;
35675;SDS011;21790;42.668;23.298;2023-11-22T17:26:33;14.85;;;9.18;;
35675;SDS011;21790;42.668;23.298;2023-11-22T17:28:59;17.90;;;10.32;;
35675;SDS011;21790;42.668;23.298;2023-11-22T17:31:25;19.70;;;10.30;;
35675;SDS011;21790;42.668;23.298;2023-11-22T17:38:44;16.33;;;9.27;;
35675;SDS011;21790;42.668;23.298;2023-11-22T18:03:12;15.30;;;9.00;;
35675;SDS011;21790;42.668;23.298;2023-11-22T18:05:38;15.40;;;8.90;;
35675;SDS011;21790;42.668;23.298;2023-11-22T18:08:04;16.10;;;9.68;;
35675;SDS011;21790;42.668;23.298;2023-11-22T18:10:29;14.18;;;8.70;;
35675;SDS011;21790;42.668;23.298;2023-11-22T18:12:57;14.90;;;9.30;;
35675;SDS011;21790;42.668;23.298;2023-11-22T18:15:24;14.80;;;9.40;;
35675;SDS011;21790;42.668;23.298;2023-11-22T18:17:51;19.15;;;9.75;;
35675;SDS011;21790;42.668;23.298;2023-11-22T18:20:17;15.25;;;10.30;;
35675;SDS011;21790;42.668;23.298;2023-11-22T18:22:42;17.05;;;10.85;;
35675;SDS011;21790;42.668;23.298;2023-11-22T18:25:10;17.02;;;10.50;;
35675;SDS011;21790;42.668;23.298;2023-11-22T18:27:44;20.98;;;10.73;;
35675;SDS011;21790;42.668;23.298;2023-11-22T18:30:09;15.95;;;10.02;;
35675;SDS011;21790;42.668;23.298;2023-11-22T18:32:35;15.80;;;10.23;;
35675;SDS011;21790;42.668;23.298;2023-11-22T18:35:03;19.08;;;10.45;;
35675;SDS011;21790;42.668;23.298;2023-11-22T18:37:29;19.17;;;10.32;;
35675;SDS011;21790;42.668;23.298;2023-11-22T18:39:58;16.65;;;10.32;;
35675;SDS011;21790;42.668;23.298;2023-11-22T18:42:24;17.65;;;10.65;;
35675;SDS011;21790;42.668;23.298;2023-11-22T18:44:52;16.90;;;10.63;;
35675;SDS011;21790;42.668;23.298;2023-11-22T18:47:18;16.92;;;10.90;;